createdAt,value
2023-03-18T00:00:48.268Z,6.00
2023-03-18T00:01:48.244Z,5.30
2023-03-18T00:02:48.422Z,6.60
2023-03-18T00:03:48.252Z,5.40
2023-03-18T00:04:48.218Z,5.10
2023-03-18T00:05:48.259Z,7.90
2023-03-18T00:06:48.280Z,6.80
2023-03-18T00:07:48.146Z,7.60
2023-03-18T00:08:48.180Z,9.40
2023-03-18T00:09:48.118Z,7.70
2023-03-18T00:10:51.185Z,5.00
2023-03-18T00:11:48.133Z,7.00
2023-03-18T00:12:48.103Z,8.60
2023-03-18T00:13:48.056Z,8.10
2023-03-18T00:14:48.065Z,6.50
2023-03-18T00:15:48.128Z,8.10
2023-03-18T00:16:48.056Z,8.80
2023-03-18T00:17:48.012Z,6.40
2023-03-18T00:18:48.033Z,5.40
2023-03-18T00:19:48.013Z,9.90
2023-03-18T00:20:47.973Z,10.10
2023-03-18T00:21:48.002Z,11.10
2023-03-18T00:22:47.974Z,7.40
2023-03-18T00:23:47.941Z,7.20
2023-03-18T00:24:47.930Z,5.20
2023-03-18T00:25:47.902Z,7.20
2023-03-18T00:26:49.118Z,7.50
2023-03-18T00:27:47.901Z,8.10
2023-03-18T00:28:47.873Z,7.40
2023-03-18T00:29:47.860Z,10.40
2023-03-18T00:30:47.831Z,7.90
2023-03-18T00:31:47.824Z,5.80
2023-03-18T00:32:47.847Z,8.50
2023-03-18T00:33:47.791Z,7.40
2023-03-18T00:34:47.774Z,5.60
2023-03-18T00:35:47.786Z,6.90
2023-03-18T00:36:47.762Z,7.20
2023-03-18T00:37:47.737Z,6.30
2023-03-18T00:38:47.754Z,6.20
2023-03-18T00:39:47.705Z,10.90
2023-03-18T00:40:47.710Z,7.00
2023-03-18T00:41:47.690Z,4.10
2023-03-18T00:42:47.672Z,7.10
2023-03-18T00:43:47.666Z,5.00
2023-03-18T00:44:47.654Z,7.60
2023-03-18T00:45:47.619Z,5.90
2023-03-18T00:46:47.678Z,8.90
2023-03-18T00:47:47.601Z,8.20
2023-03-18T00:48:47.627Z,7.70
2023-03-18T00:49:47.600Z,8.80
2023-03-18T00:50:47.590Z,5.90
2023-03-18T00:51:47.550Z,11.90
2023-03-18T00:52:47.561Z,8.80
2023-03-18T00:53:47.522Z,6.60
2023-03-18T00:54:47.529Z,13.10
2023-03-18T00:55:47.497Z,7.20
2023-03-18T00:56:47.493Z,5.80
2023-03-18T00:57:47.488Z,9.10
2023-03-18T00:58:47.465Z,6.00
2023-03-18T00:59:47.434Z,6.60
2023-03-18T01:00:47.434Z,8.60
2023-03-18T01:01:47.421Z,8.10
2023-03-18T01:02:47.431Z,8.80
2023-03-18T01:03:47.378Z,9.90
2023-03-18T01:04:47.400Z,8.50
2023-03-18T01:05:47.351Z,8.00
2023-03-18T01:06:47.366Z,6.90
2023-03-18T01:07:47.324Z,7.00
2023-03-18T01:08:47.332Z,6.50
2023-03-18T01:09:47.322Z,5.00
2023-03-18T01:10:47.276Z,6.60
2023-03-18T01:11:47.292Z,7.40
2023-03-18T01:12:47.268Z,7.30
2023-03-18T01:13:47.238Z,5.30
2023-03-18T01:14:47.232Z,7.90
2023-03-18T01:15:47.230Z,7.90
2023-03-18T01:16:47.271Z,5.70
2023-03-18T01:17:47.209Z,5.20
2023-03-18T01:18:47.181Z,7.70
2023-03-18T01:19:47.170Z,10.30
2023-03-18T01:20:47.195Z,7.00
2023-03-18T01:21:47.156Z,10.90
2023-03-18T01:22:47.211Z,7.40
2023-03-18T01:23:47.214Z,9.10
2023-03-18T01:24:47.122Z,7.90
2023-03-18T01:25:47.189Z,6.30
2023-03-18T01:26:47.083Z,10.90
2023-03-18T01:27:47.070Z,8.50
2023-03-18T01:28:48.287Z,5.30
2023-03-18T01:29:47.112Z,7.40
2023-03-18T01:30:47.105Z,8.50
2023-03-18T01:31:47.039Z,7.60
2023-03-18T01:32:47.023Z,6.80
2023-03-18T01:33:46.987Z,8.10
2023-03-18T01:34:47.016Z,8.10
2023-03-18T01:35:47.039Z,6.30
2023-03-18T01:36:46.964Z,7.30
2023-03-18T01:37:46.928Z,9.90
2023-03-18T01:38:46.925Z,9.30
2023-03-18T01:39:46.954Z,8.10
2023-03-18T01:40:46.926Z,7.90
2023-03-18T01:41:46.939Z,8.20
2023-03-18T01:42:46.892Z,6.90
2023-03-18T01:43:46.857Z,8.00
2023-03-18T01:44:46.815Z,7.40
2023-03-18T01:45:46.951Z,8.80
2023-03-18T01:46:46.834Z,8.20
2023-03-18T01:47:46.819Z,8.20
2023-03-18T01:48:46.885Z,7.20
2023-03-18T01:49:46.779Z,7.10
2023-03-18T01:50:46.757Z,8.20
2023-03-18T01:51:46.735Z,8.40
2023-03-18T01:52:46.753Z,6.60
2023-03-18T01:53:46.709Z,8.70
2023-03-18T01:54:46.696Z,8.30
2023-03-18T01:55:46.674Z,7.60
2023-03-18T01:56:46.669Z,7.30
2023-03-18T01:57:46.675Z,8.70
2023-03-18T01:58:46.625Z,6.90
2023-03-18T01:59:46.612Z,4.80
2023-03-18T02:01:07.754Z,9.50
2023-03-18T02:01:46.618Z,8.40
2023-03-18T02:02:46.581Z,8.70
2023-03-18T02:03:51.049Z,6.40
2023-03-18T02:04:46.589Z,8.20
2023-03-18T02:05:46.536Z,7.60
2023-03-18T02:06:46.566Z,7.10
2023-03-18T02:07:46.521Z,8.50
2023-03-18T02:08:46.515Z,7.10
2023-03-18T02:09:46.493Z,7.90
2023-03-18T02:10:46.515Z,8.70
2023-03-18T02:11:46.458Z,8.90
2023-03-18T02:12:46.466Z,5.50
2023-03-18T02:13:46.455Z,5.80
2023-03-18T02:14:46.427Z,7.70
2023-03-18T02:15:46.491Z,11.30
2023-03-18T02:16:46.442Z,5.80
2023-03-18T02:17:46.425Z,9.00
2023-03-18T02:18:46.364Z,8.60
2023-03-18T02:19:46.364Z,7.20
2023-03-18T02:20:46.388Z,10.50
2023-03-18T02:21:46.343Z,8.70
2023-03-18T02:22:46.328Z,9.10
2023-03-18T02:23:46.276Z,7.30
2023-03-18T02:24:46.285Z,10.80
2023-03-18T02:25:46.293Z,10.40
2023-03-18T02:26:46.247Z,11.50
2023-03-18T02:27:46.250Z,7.10
2023-03-18T02:28:46.237Z,9.70
2023-03-18T02:29:46.227Z,8.00
2023-03-18T02:30:46.265Z,9.60
2023-03-18T02:31:46.182Z,9.20
2023-03-18T02:32:49.684Z,9.00
2023-03-18T02:33:46.144Z,10.40
2023-03-18T02:34:46.164Z,7.20
2023-03-18T02:35:46.148Z,8.10
2023-03-18T02:36:46.229Z,8.00
2023-03-18T02:37:46.109Z,8.40
2023-03-18T02:38:46.109Z,12.30
2023-03-18T02:39:46.068Z,7.90
2023-03-18T02:40:46.194Z,8.90
2023-03-18T02:41:46.054Z,7.50
2023-03-18T02:42:46.109Z,6.60
2023-03-18T02:43:46.027Z,7.60
2023-03-18T02:44:47.085Z,8.60
2023-03-18T02:45:46.031Z,9.40
2023-03-18T02:46:45.981Z,6.70
2023-03-18T02:47:46.013Z,10.50
2023-03-18T02:48:45.947Z,8.10
2023-03-18T02:49:45.961Z,9.30
2023-03-18T02:50:45.939Z,8.60
2023-03-18T02:51:45.906Z,10.20
2023-03-18T02:52:45.930Z,10.60
2023-03-18T02:53:45.884Z,8.60
2023-03-18T02:54:45.872Z,7.30
2023-03-18T02:55:45.850Z,7.70
2023-03-18T02:56:45.832Z,8.70
2023-03-18T02:57:45.825Z,9.60
2023-03-18T02:58:45.826Z,7.80
2023-03-18T02:59:45.807Z,7.50
2023-03-18T03:00:45.796Z,6.50
2023-03-18T03:01:45.867Z,9.80
2023-03-18T03:02:45.841Z,8.90
2023-03-18T03:03:45.859Z,10.20
2023-03-18T03:04:45.805Z,7.90
2023-03-18T03:05:45.835Z,7.80
2023-03-18T03:06:45.708Z,8.70
2023-03-18T03:07:45.730Z,7.90
2023-03-18T03:08:45.689Z,6.00
2023-03-18T03:09:45.671Z,5.20
2023-03-18T03:10:45.674Z,9.30
2023-03-18T03:11:45.661Z,7.30
2023-03-18T03:12:45.629Z,8.80
2023-03-18T03:13:45.646Z,10.60
2023-03-18T03:14:45.619Z,8.20
2023-03-18T03:15:45.630Z,6.60
2023-03-18T03:16:45.570Z,6.80
2023-03-18T03:17:45.614Z,7.30
2023-03-18T03:18:45.560Z,8.50
2023-03-18T03:19:45.690Z,8.40
2023-03-18T03:20:45.617Z,10.00
2023-03-18T03:21:45.518Z,8.00
2023-03-18T03:22:45.504Z,6.20
2023-03-18T03:23:45.506Z,6.30
2023-03-18T03:24:45.456Z,9.90
2023-03-18T03:25:45.475Z,6.00
2023-03-18T03:26:45.462Z,7.50
2023-03-18T03:27:45.484Z,8.20
2023-03-18T03:28:45.431Z,6.70
2023-03-18T03:29:45.435Z,6.70
2023-03-18T03:30:45.523Z,9.00
2023-03-18T03:31:47.438Z,7.00
2023-03-18T03:32:45.471Z,7.90
2023-03-18T03:33:45.387Z,7.70
2023-03-18T03:34:45.363Z,8.60
2023-03-18T03:35:45.337Z,5.40
2023-03-18T03:36:45.320Z,5.60
2023-03-18T03:37:45.349Z,9.60
2023-03-18T03:38:45.333Z,8.60
2023-03-18T03:39:45.273Z,11.60
2023-03-18T03:40:45.284Z,9.80
2023-03-18T03:41:45.230Z,6.20
2023-03-18T03:42:45.303Z,8.90
2023-03-18T03:43:45.349Z,9.80
2023-03-18T03:44:45.181Z,9.00
2023-03-18T03:45:45.213Z,9.30
2023-03-18T03:46:45.186Z,7.80
2023-03-18T03:47:45.181Z,9.90
2023-03-18T03:48:45.204Z,8.40
2023-03-18T03:49:47.032Z,8.20
2023-03-18T03:50:45.119Z,6.70
2023-03-18T03:51:45.120Z,7.50
2023-03-18T03:52:45.117Z,6.90
2023-03-18T03:53:45.077Z,8.90
2023-03-18T03:54:45.062Z,11.20
2023-03-18T03:55:45.037Z,8.80
2023-03-18T03:56:45.058Z,5.30
2023-03-18T03:57:45.024Z,8.10
2023-03-18T03:58:45.034Z,6.00
2023-03-18T03:59:44.992Z,9.90
2023-03-18T04:00:45.003Z,8.60
2023-03-18T04:01:44.954Z,10.00
2023-03-18T04:02:45.034Z,8.90
2023-03-18T04:03:44.978Z,8.80
2023-03-18T04:04:44.918Z,8.40
2023-03-18T04:05:44.911Z,8.10
2023-03-18T04:06:44.911Z,7.10
2023-03-18T04:07:44.877Z,7.60
2023-03-18T04:08:44.866Z,9.80
2023-03-18T04:09:44.861Z,7.80
2023-03-18T04:10:44.878Z,5.80
2023-03-18T04:11:45.127Z,9.40
2023-03-18T04:12:44.907Z,10.30
2023-03-18T04:13:44.832Z,6.50
2023-03-18T04:14:44.828Z,9.20
2023-03-18T04:15:44.801Z,7.70
2023-03-18T04:16:44.852Z,5.80
2023-03-18T04:17:44.769Z,10.30
2023-03-18T04:18:44.773Z,7.30
2023-03-18T04:19:44.727Z,12.60
2023-03-18T04:20:44.689Z,8.40
2023-03-18T04:21:44.711Z,9.00
2023-03-18T04:22:44.695Z,8.40
2023-03-18T04:23:44.681Z,10.30
2023-03-18T04:24:44.656Z,8.70
2023-03-18T04:25:44.621Z,8.40
2023-03-18T04:26:44.630Z,7.30
2023-03-18T04:27:44.605Z,8.20
2023-03-18T04:28:44.592Z,10.40
2023-03-18T04:29:44.564Z,12.10
2023-03-18T04:30:44.561Z,9.10
2023-03-18T04:31:44.624Z,9.50
2023-03-18T04:32:44.625Z,7.10
2023-03-18T04:33:44.514Z,8.30
2023-03-18T04:34:44.530Z,8.90
2023-03-18T04:35:44.531Z,10.00
2023-03-18T04:36:44.475Z,9.40
2023-03-18T04:37:44.484Z,8.80
2023-03-18T04:38:44.456Z,10.50
2023-03-18T04:39:44.504Z,9.10
2023-03-18T04:40:44.436Z,11.50
2023-03-18T04:41:44.423Z,10.00
2023-03-18T04:42:44.473Z,10.90
2023-03-18T04:43:44.388Z,8.50
2023-03-18T04:44:44.370Z,8.20
2023-03-18T04:45:44.371Z,10.10
2023-03-18T04:46:44.489Z,7.50
2023-03-18T04:47:44.322Z,11.80
2023-03-18T04:48:44.300Z,6.40
2023-03-18T04:49:44.312Z,6.70
2023-03-18T04:50:44.270Z,7.80
2023-03-18T04:51:44.299Z,9.30
2023-03-18T04:52:44.240Z,6.60
2023-03-18T04:53:44.238Z,7.80
2023-03-18T04:54:44.222Z,6.90
2023-03-18T04:55:44.203Z,6.70
2023-03-18T04:56:44.209Z,9.50
2023-03-18T04:57:44.207Z,8.30
2023-03-18T04:58:44.193Z,8.20
2023-03-18T04:59:44.227Z,6.80
2023-03-18T05:00:44.175Z,7.10
2023-03-18T05:01:44.131Z,8.00
2023-03-18T05:02:44.156Z,10.90
2023-03-18T05:03:44.132Z,6.80
2023-03-18T05:04:44.104Z,6.40
2023-03-18T05:05:44.104Z,9.50
2023-03-18T05:06:44.126Z,10.80
2023-03-18T05:07:44.066Z,9.60
2023-03-18T05:08:44.073Z,9.50
2023-03-18T05:09:44.055Z,11.30
2023-03-18T05:10:44.031Z,7.30
2023-03-18T05:11:44.016Z,9.30
2023-03-18T05:12:44.058Z,7.70
2023-03-18T05:13:44.005Z,8.10
2023-03-18T05:14:43.969Z,8.40
2023-03-18T05:15:43.936Z,7.70
2023-03-18T05:16:44.006Z,6.60
2023-03-18T05:17:44.000Z,5.80
2023-03-18T05:18:43.895Z,7.80
2023-03-18T05:19:43.936Z,8.40
2023-03-18T05:20:43.902Z,9.30
2023-03-18T05:21:43.910Z,10.80
2023-03-18T05:22:43.920Z,8.20
2023-03-18T05:23:43.926Z,11.70
2023-03-18T05:24:43.796Z,9.00
2023-03-18T05:25:43.808Z,9.60
2023-03-18T05:26:43.779Z,12.00
2023-03-18T05:27:43.791Z,9.70
2023-03-18T05:28:43.857Z,8.10
2023-03-18T05:29:43.773Z,7.00
2023-03-18T05:30:43.753Z,6.40
2023-03-18T05:31:43.900Z,10.80
2023-03-18T05:32:43.730Z,7.80
2023-03-18T05:33:43.710Z,9.90
2023-03-18T05:34:43.687Z,9.90
2023-03-18T05:35:43.708Z,13.00
2023-03-18T05:36:43.650Z,8.40
2023-03-18T05:37:43.694Z,10.70
2023-03-18T05:38:43.646Z,7.70
2023-03-18T05:39:44.916Z,10.90
2023-03-18T05:40:43.601Z,8.40
2023-03-18T05:41:43.596Z,9.70
2023-03-18T05:42:55.460Z,8.70
2023-03-18T05:43:43.576Z,9.60
2023-03-18T05:44:43.549Z,9.10
2023-03-18T05:45:43.539Z,9.90
2023-03-18T05:46:43.580Z,8.10
2023-03-18T05:47:43.493Z,9.20
2023-03-18T05:48:43.528Z,8.50
2023-03-18T05:49:43.458Z,8.40
2023-03-18T05:50:43.468Z,8.10
2023-03-18T05:51:43.443Z,11.80
2023-03-18T05:52:43.428Z,8.20
2023-03-18T05:53:43.443Z,8.90
2023-03-18T05:54:43.407Z,7.50
2023-03-18T05:55:43.415Z,15.20
2023-03-18T05:56:43.383Z,7.10
2023-03-18T05:57:43.396Z,9.60
2023-03-18T05:58:43.348Z,11.80
2023-03-18T05:59:43.349Z,9.60
2023-03-18T06:00:43.339Z,11.30
2023-03-18T06:01:43.303Z,10.10
2023-03-18T06:02:43.277Z,8.90
2023-03-18T06:03:43.374Z,9.60
2023-03-18T06:04:43.254Z,9.30
2023-03-18T06:05:43.275Z,9.20
2023-03-18T06:06:43.269Z,8.20
2023-03-18T06:07:43.213Z,10.10
2023-03-18T06:08:43.221Z,11.00
2023-03-18T06:09:43.191Z,9.30
2023-03-18T06:10:43.194Z,8.50
2023-03-18T06:11:43.255Z,8.90
2023-03-18T06:12:43.253Z,7.40
2023-03-18T06:13:43.142Z,8.90
2023-03-18T06:14:43.240Z,8.80
2023-03-18T06:15:43.182Z,8.80
2023-03-18T06:16:43.269Z,8.40
2023-03-18T06:17:43.083Z,6.20
2023-03-18T06:18:43.110Z,7.80
2023-03-18T06:19:43.079Z,10.10
2023-03-18T06:20:43.083Z,6.80
2023-03-18T06:21:43.092Z,7.20
2023-03-18T06:22:43.030Z,7.40
2023-03-18T06:23:43.082Z,8.40
2023-03-18T06:24:43.170Z,8.60
2023-03-18T06:25:42.983Z,8.40
2023-03-18T06:26:43.000Z,10.20
2023-03-18T06:27:42.972Z,8.20
2023-03-18T06:28:42.932Z,7.70
2023-03-18T06:29:42.951Z,12.50
2023-03-18T06:30:42.981Z,9.20
2023-03-18T06:31:42.922Z,7.60
2023-03-18T06:32:42.988Z,9.70
2023-03-18T06:33:42.960Z,7.70
2023-03-18T06:34:42.870Z,8.70
2023-03-18T06:35:42.961Z,9.90
2023-03-18T06:36:42.852Z,9.90
2023-03-18T06:37:42.896Z,8.40
2023-03-18T06:38:42.842Z,8.10
2023-03-18T06:39:42.804Z,9.40
2023-03-18T06:40:42.821Z,8.40
2023-03-18T06:41:42.809Z,9.70
2023-03-18T06:42:42.790Z,8.70
2023-03-18T06:43:42.725Z,8.90
2023-03-18T06:44:42.740Z,11.00
2023-03-18T06:45:42.748Z,12.20
2023-03-18T06:46:44.013Z,8.40
2023-03-18T06:47:42.657Z,9.20
2023-03-18T06:48:42.662Z,8.40
2023-03-18T06:49:42.693Z,10.90
2023-03-18T06:50:42.635Z,6.90
2023-03-18T06:51:42.629Z,10.40
2023-03-18T06:52:42.596Z,9.50
2023-03-18T06:53:42.629Z,9.60
2023-03-18T06:54:42.591Z,11.80
2023-03-18T06:55:42.623Z,9.70
2023-03-18T06:56:43.393Z,11.40
2023-03-18T06:57:42.554Z,9.70
2023-03-18T06:58:42.615Z,8.70
2023-03-18T06:59:42.550Z,8.30
2023-03-18T07:00:42.517Z,11.50
2023-03-18T07:01:42.675Z,10.40
2023-03-18T07:02:42.508Z,10.80
2023-03-18T07:03:42.558Z,9.80
2023-03-18T07:04:42.622Z,10.50
2023-03-18T07:05:42.445Z,9.70
2023-03-18T07:06:42.492Z,11.30
2023-03-18T07:07:42.447Z,10.20
2023-03-18T07:08:42.553Z,8.10
2023-03-18T07:09:42.362Z,8.70
2023-03-18T07:10:42.407Z,10.70
2023-03-18T07:11:42.447Z,8.60
2023-03-18T07:12:42.349Z,11.60
2023-03-18T07:13:42.335Z,8.90
2023-03-18T07:14:42.295Z,10.30
2023-03-18T07:15:42.374Z,9.40
2023-03-18T07:16:42.520Z,12.60
2023-03-18T07:17:42.309Z,7.90
2023-03-18T07:18:42.352Z,11.20
2023-03-18T07:19:42.267Z,9.80
2023-03-18T07:20:42.218Z,10.90
2023-03-18T07:21:42.250Z,10.20
2023-03-18T07:22:42.225Z,8.40
2023-03-18T07:23:42.181Z,10.90
2023-03-18T07:24:42.149Z,10.50
2023-03-18T07:25:42.130Z,12.10
2023-03-18T07:26:42.173Z,12.40
2023-03-18T07:27:42.226Z,9.20
2023-03-18T07:28:42.124Z,13.30
2023-03-18T07:29:42.120Z,12.40
2023-03-18T07:30:42.082Z,12.40
2023-03-18T07:31:42.073Z,8.80
2023-03-18T07:32:42.095Z,8.70
2023-03-18T07:33:42.032Z,10.80
2023-03-18T07:34:42.034Z,11.30
2023-03-18T07:35:42.199Z,11.80
2023-03-18T07:36:42.005Z,10.90
2023-03-18T07:37:42.017Z,11.80
2023-03-18T07:38:41.978Z,9.60
2023-03-18T07:39:41.954Z,12.20
2023-03-18T07:40:41.943Z,9.60
2023-03-18T07:41:41.936Z,10.80
2023-03-18T07:42:42.041Z,10.30
2023-03-18T07:43:41.997Z,10.80
2023-03-18T07:44:41.916Z,13.70
2023-03-18T07:45:41.968Z,14.10
2023-03-18T07:46:42.121Z,10.20
2023-03-18T07:47:41.867Z,12.30
2023-03-18T07:48:41.840Z,12.30
2023-03-18T07:49:41.853Z,13.90
2023-03-18T07:50:41.789Z,12.00
2023-03-18T07:51:41.819Z,8.40
2023-03-18T07:52:41.780Z,11.70
2023-03-18T07:53:41.757Z,12.00
2023-03-18T07:54:41.770Z,9.20
2023-03-18T07:55:41.738Z,11.20
2023-03-18T07:56:41.747Z,10.00
2023-03-18T07:57:41.715Z,11.20
2023-03-18T07:58:41.737Z,14.00
2023-03-18T07:59:41.695Z,11.00
2023-03-18T08:00:41.729Z,9.80
2023-03-18T08:01:41.648Z,13.90
2023-03-18T08:02:41.665Z,12.10
2023-03-18T08:03:41.652Z,11.20
2023-03-18T08:04:41.639Z,11.90
2023-03-18T08:05:41.585Z,11.20
2023-03-18T08:06:41.721Z,11.30
2023-03-18T08:07:41.578Z,13.00
2023-03-18T08:08:41.594Z,12.40
2023-03-18T08:09:41.525Z,14.00
2023-03-18T08:10:41.550Z,10.80
2023-03-18T08:11:41.512Z,12.20
2023-03-18T08:12:52.193Z,13.00
2023-03-18T08:13:41.518Z,13.40
2023-03-18T08:14:41.470Z,12.40
2023-03-18T08:15:41.474Z,14.20
2023-03-18T08:16:41.513Z,14.80
2023-03-18T08:17:41.456Z,12.50
2023-03-18T08:18:41.492Z,15.00
2023-03-18T08:19:41.491Z,15.70
2023-03-18T08:20:41.523Z,15.10
2023-03-18T08:21:41.429Z,14.60
2023-03-18T08:22:41.561Z,12.30
2023-03-18T08:23:41.470Z,14.70
2023-03-18T08:24:41.352Z,16.10
2023-03-18T08:25:41.376Z,14.60
2023-03-18T08:26:41.369Z,14.90
2023-03-18T08:27:41.298Z,15.10
2023-03-18T08:28:41.282Z,13.90
2023-03-18T08:29:41.284Z,16.40
2023-03-18T08:30:41.333Z,15.40
2023-03-18T08:31:41.340Z,16.10
2023-03-18T08:32:41.333Z,16.40
2023-03-18T08:33:41.329Z,14.20
2023-03-18T08:34:41.240Z,16.40
2023-03-18T08:35:41.291Z,14.70
2023-03-18T08:36:41.252Z,16.10
2023-03-18T08:37:42.138Z,14.70
2023-03-18T08:38:41.183Z,15.60
2023-03-18T08:39:41.128Z,15.20
2023-03-18T08:40:41.219Z,14.40
2023-03-18T08:41:41.122Z,15.50
2023-03-18T08:42:41.127Z,16.60
2023-03-18T08:43:41.100Z,18.20
2023-03-18T08:44:41.058Z,14.90
2023-03-18T08:45:41.086Z,13.30
2023-03-18T08:46:41.042Z,16.40
2023-03-18T08:47:41.122Z,13.00
2023-03-18T08:48:41.024Z,14.70
2023-03-18T08:49:41.022Z,13.60
2023-03-18T08:50:41.007Z,16.10
2023-03-18T08:51:40.960Z,15.00
2023-03-18T08:52:41.031Z,16.30
2023-03-18T08:53:41.078Z,14.80
2023-03-18T08:54:41.019Z,12.60
2023-03-18T08:55:40.922Z,14.00
2023-03-18T08:56:40.920Z,14.00
2023-03-18T08:57:40.948Z,15.60
2023-03-18T08:58:40.911Z,11.70
2023-03-18T08:59:40.952Z,11.40
2023-03-18T09:00:40.884Z,13.70
2023-03-18T09:01:40.902Z,14.90
2023-03-18T09:02:40.882Z,13.50
2023-03-18T09:03:40.868Z,13.50
2023-03-18T09:04:40.788Z,11.40
2023-03-18T09:05:40.792Z,12.80
2023-03-18T09:06:40.805Z,13.40
2023-03-18T09:07:40.862Z,9.80
2023-03-18T09:08:40.740Z,12.50
2023-03-18T09:09:43.814Z,11.10
2023-03-18T09:10:40.726Z,10.90
2023-03-18T09:11:40.693Z,11.30
2023-03-18T09:12:40.684Z,8.90
2023-03-18T09:13:40.694Z,10.30
2023-03-18T09:14:40.680Z,11.50
2023-03-18T09:15:40.718Z,9.40
2023-03-18T09:16:40.725Z,11.70
2023-03-18T09:17:56.490Z,11.30
2023-03-18T09:18:43.570Z,9.10
2023-03-18T09:19:40.677Z,9.20
2023-03-18T09:20:40.734Z,11.20
2023-03-18T09:21:40.632Z,9.20
2023-03-18T09:22:40.554Z,8.60
2023-03-18T09:23:40.580Z,11.20
2023-03-18T09:24:40.533Z,9.00
2023-03-18T09:25:40.532Z,11.70
2023-03-18T09:26:40.515Z,10.00
2023-03-18T09:27:40.506Z,10.20
2023-03-18T09:28:40.616Z,9.70
2023-03-18T09:29:40.443Z,13.50
2023-03-18T09:30:40.536Z,9.90
2023-03-18T09:31:40.449Z,10.40
2023-03-18T09:32:40.550Z,10.40
2023-03-18T09:33:40.433Z,7.50
2023-03-18T09:34:40.379Z,7.40
2023-03-18T09:35:40.385Z,9.60
2023-03-18T09:36:40.354Z,8.00
2023-03-18T09:37:40.392Z,9.80
2023-03-18T09:38:40.339Z,9.30
2023-03-18T09:39:40.329Z,7.70
2023-03-18T09:40:40.292Z,7.90
2023-03-18T09:41:40.317Z,7.80
2023-03-18T09:42:40.259Z,11.00
2023-03-18T09:43:40.299Z,9.00
2023-03-18T09:44:40.242Z,7.70
2023-03-18T09:45:40.278Z,10.50
2023-03-18T09:46:40.331Z,9.10
2023-03-18T09:47:40.185Z,7.50
2023-03-18T09:48:40.213Z,6.40
2023-03-18T09:49:40.235Z,8.20
2023-03-18T09:50:40.188Z,10.70
2023-03-18T09:51:40.138Z,9.10
2023-03-18T09:52:40.175Z,11.60
2023-03-18T09:53:40.132Z,14.00
2023-03-18T09:54:40.120Z,9.50
2023-03-18T09:55:40.143Z,9.10
2023-03-18T09:56:40.101Z,8.70
2023-03-18T09:57:40.089Z,11.80
2023-03-18T09:58:40.072Z,10.80
2023-03-18T09:59:40.064Z,10.40
2023-03-18T10:00:40.013Z,9.30
2023-03-18T10:01:40.084Z,10.20
2023-03-18T10:02:39.986Z,13.50
2023-03-18T10:03:40.043Z,10.80
2023-03-18T10:04:40.081Z,12.00
2023-03-18T10:05:39.958Z,14.60
2023-03-18T10:06:39.955Z,15.30
2023-03-18T10:07:39.962Z,11.00
2023-03-18T10:08:39.914Z,13.70
2023-03-18T10:09:39.910Z,11.60
2023-03-18T10:10:39.878Z,13.80
2023-03-18T10:11:39.893Z,15.60
2023-03-18T10:12:39.871Z,10.40
2023-03-18T10:13:39.851Z,9.90
2023-03-18T10:14:41.659Z,12.00
2023-03-18T10:15:39.919Z,11.50
2023-03-18T10:16:39.834Z,11.40
2023-03-18T10:17:39.776Z,13.30
2023-03-18T10:18:39.772Z,9.90
2023-03-18T10:19:39.787Z,12.10
2023-03-18T10:20:39.747Z,11.50
2023-03-18T10:21:40.505Z,18.00
2023-03-18T10:22:39.724Z,13.50
2023-03-18T10:23:39.737Z,11.20
2023-03-18T10:24:39.720Z,10.50
2023-03-18T10:25:39.706Z,12.80
2023-03-18T10:26:39.716Z,12.30
2023-03-18T10:27:39.650Z,10.60
2023-03-18T10:28:39.668Z,12.30
2023-03-18T10:29:39.677Z,10.80
2023-03-18T10:30:39.653Z,10.20
2023-03-18T10:31:39.776Z,9.20
2023-03-18T10:32:49.555Z,9.30
2023-03-18T10:33:39.572Z,8.30
2023-03-18T10:34:39.594Z,9.70
2023-03-18T10:35:39.644Z,11.40
2023-03-18T10:36:39.765Z,9.20
2023-03-18T10:37:39.562Z,7.40
2023-03-18T10:38:39.535Z,8.70
2023-03-18T10:39:39.630Z,8.20
2023-03-18T10:40:40.058Z,10.90
2023-03-18T10:41:40.115Z,7.50
2023-03-18T10:42:39.481Z,6.10
2023-03-18T10:43:39.488Z,8.70
2023-03-18T10:44:40.916Z,7.70
2023-03-18T10:45:39.484Z,5.30
2023-03-18T10:46:39.638Z,8.60
2023-03-18T10:47:39.372Z,5.70
2023-03-18T10:48:39.368Z,5.80
2023-03-18T10:49:39.419Z,5.70
2023-03-18T10:50:39.368Z,6.50
2023-03-18T10:51:39.332Z,7.00
2023-03-18T10:52:39.338Z,4.80
2023-03-18T10:53:39.292Z,6.90
2023-03-18T10:54:39.314Z,5.70
2023-03-18T10:55:39.302Z,7.30
2023-03-18T10:56:39.287Z,5.10
2023-03-18T10:57:39.250Z,4.50
2023-03-18T10:58:39.230Z,7.00
2023-03-18T10:59:39.237Z,6.80
2023-03-18T11:00:39.212Z,4.90
2023-03-18T11:01:39.245Z,8.00
2023-03-18T11:02:39.372Z,8.40
2023-03-18T11:03:39.185Z,4.20
2023-03-18T11:04:39.183Z,7.90
2023-03-18T11:05:39.154Z,6.30
2023-03-18T11:06:39.138Z,6.90
2023-03-18T11:07:39.106Z,6.80
2023-03-18T11:08:39.101Z,7.60
2023-03-18T11:09:39.109Z,4.30
2023-03-18T11:10:39.076Z,7.40
2023-03-18T11:11:39.115Z,5.00
2023-03-18T11:12:39.043Z,5.40
2023-03-18T11:13:39.027Z,5.10
2023-03-18T11:14:39.021Z,6.10
2023-03-18T11:15:39.007Z,4.10
2023-03-18T11:16:39.007Z,6.90
2023-03-18T11:17:39.088Z,4.10
2023-03-18T11:18:38.970Z,5.60
2023-03-18T11:19:39.106Z,7.20
2023-03-18T11:20:39.041Z,6.20
2023-03-18T11:21:59.997Z,7.20
2023-03-18T11:22:39.013Z,3.30
2023-03-18T11:23:38.884Z,6.70
2023-03-18T11:24:38.896Z,5.90
2023-03-18T11:25:38.906Z,5.70
2023-03-18T11:26:38.846Z,9.00
2023-03-18T11:27:38.842Z,6.60
2023-03-18T11:28:38.838Z,5.60
2023-03-18T11:29:38.940Z,7.90
2023-03-18T11:30:38.845Z,5.30
2023-03-18T11:31:38.883Z,5.80
2023-03-18T11:32:38.805Z,3.60
2023-03-18T11:33:38.785Z,3.90
2023-03-18T11:34:38.768Z,3.60
2023-03-18T11:35:38.832Z,4.30
2023-03-18T11:36:38.721Z,6.50
2023-03-18T11:37:38.703Z,3.70
2023-03-18T11:38:38.713Z,4.90
2023-03-18T11:39:38.686Z,5.30
2023-03-18T11:40:38.697Z,5.90
2023-03-18T11:41:38.666Z,6.40
2023-03-18T11:42:38.622Z,5.20
2023-03-18T11:43:38.629Z,4.80
2023-03-18T11:44:38.644Z,5.10
2023-03-18T11:45:38.664Z,4.70
2023-03-18T11:46:38.696Z,5.40
2023-03-18T11:47:38.577Z,4.00
2023-03-18T11:48:38.561Z,3.40
2023-03-18T11:49:38.532Z,3.40
2023-03-18T11:50:38.522Z,4.40
2023-03-18T11:51:38.579Z,3.40
2023-03-18T11:52:38.487Z,3.00
2023-03-18T11:53:38.667Z,5.00
2023-03-18T11:54:38.570Z,9.00
2023-03-18T11:55:38.573Z,3.90
2023-03-18T11:56:38.433Z,3.10
2023-03-18T11:57:38.491Z,3.20
2023-03-18T11:58:38.466Z,7.40
2023-03-18T11:59:38.406Z,3.50
2023-03-18T12:00:38.416Z,4.40
2023-03-18T12:01:38.401Z,3.00
2023-03-18T12:02:38.358Z,2.80
2023-03-18T12:03:38.336Z,4.40
2023-03-18T12:04:38.350Z,2.80
2023-03-18T12:05:38.325Z,5.70
2023-03-18T12:06:38.295Z,7.80
2023-03-18T12:07:38.558Z,3.40
2023-03-18T12:08:38.269Z,7.00
2023-03-18T12:09:38.267Z,5.30
2023-03-18T12:10:38.303Z,3.60
2023-03-18T12:11:38.249Z,5.40
2023-03-18T12:12:38.212Z,5.60
2023-03-18T12:13:38.223Z,3.60
2023-03-18T12:14:39.153Z,8.40
2023-03-18T12:15:38.185Z,8.70
2023-03-18T12:16:38.205Z,6.10
2023-03-18T12:17:38.166Z,7.10
2023-03-18T12:18:38.147Z,3.70
2023-03-18T12:19:38.180Z,4.00
2023-03-18T12:20:38.169Z,4.70
2023-03-18T12:21:38.126Z,3.30
2023-03-18T12:22:38.074Z,3.90
2023-03-18T12:23:38.059Z,3.80
2023-03-18T12:24:38.150Z,3.40
2023-03-18T12:25:38.078Z,4.80
2023-03-18T12:26:38.076Z,4.60
2023-03-18T12:27:38.031Z,3.00
2023-03-18T12:28:38.048Z,3.00
2023-03-18T12:29:38.030Z,4.10
2023-03-18T12:30:38.001Z,5.20
2023-03-18T12:31:37.997Z,5.10
2023-03-18T12:32:37.972Z,5.20
2023-03-18T12:33:38.029Z,4.70
2023-03-18T12:34:38.017Z,6.50
2023-03-18T12:35:38.019Z,11.20
2023-03-18T12:36:38.061Z,7.00
2023-03-18T12:37:37.919Z,3.70
2023-03-18T12:38:37.926Z,4.70
2023-03-18T12:39:37.846Z,3.60
2023-03-18T12:40:38.238Z,2.80
2023-03-18T12:41:37.954Z,4.00
2023-03-18T12:42:37.804Z,4.70
2023-03-18T12:43:37.834Z,4.40
2023-03-18T12:44:38.070Z,3.10
2023-03-18T12:45:37.905Z,3.50
2023-03-18T12:46:37.775Z,2.90
2023-03-18T12:47:37.737Z,2.40
2023-03-18T12:48:44.270Z,3.40
2023-03-18T12:49:37.752Z,8.60
2023-03-18T12:50:38.081Z,2.50
2023-03-18T12:51:37.690Z,3.30
2023-03-18T12:52:37.787Z,4.30
2023-03-18T12:53:38.356Z,2.80
2023-03-18T12:54:37.638Z,2.50
2023-03-18T12:55:37.637Z,3.80
2023-03-18T12:56:37.912Z,4.00
2023-03-18T12:57:37.635Z,4.50
2023-03-18T12:58:37.650Z,3.80
2023-03-18T12:59:37.649Z,3.00
2023-03-18T13:00:37.609Z,4.70
2023-03-18T13:01:37.668Z,3.60
2023-03-18T13:02:37.656Z,4.00
2023-03-18T13:03:37.556Z,5.00
2023-03-18T13:04:37.710Z,4.00
2023-03-18T13:05:37.525Z,2.20
2023-03-18T13:06:37.632Z,2.90
2023-03-18T13:07:37.658Z,4.50
2023-03-18T13:08:37.466Z,3.70
2023-03-18T13:09:37.449Z,4.60
2023-03-18T13:10:37.429Z,3.10